CSC8709 ZUUU-ZGSZ
Flight info
| Callsign | CSC8709 |
|---|---|
| Flight time | 1h 54m |
| Altitude | 35100 |
| Route | K0852S1070 IDBOR7K IDBOR B330 KWE W181 DUDIT A599 POU W7 SAREX SAREX4 |
| Aircraft | A321/M-SDE3FGHIRWY/LB1 |
Departure
| Time | 2026-04-22 13:01 |
|---|---|
| Airport | Chengdu Shuangliu International Airport (ZUUU) |
Arrival
| Time | 2026-04-22 14:55 |
|---|---|
| Airport | Shenzhen Bao'an International Airport (ZGSZ) |
| Time | Latitude | Longitude | Altitude | Speed | Heading |
|---|---|---|---|---|---|
| 2026-04-22 12:26 | 30.56925 | 103.94988 | 1647 ft | 0 kts | 20° |
| 2026-04-22 12:52 | 30.56924 | 103.94988 | 1647 ft | 1 kts | 20° |
| 2026-04-22 12:53 | 30.56910 | 103.94982 | 1647 ft | 3 kts | 20° |
| 2026-04-22 12:53 | 30.56892 | 103.94974 | 1647 ft | 2 kts | 21° |
| 2026-04-22 12:53 | 30.56875 | 103.94968 | 1647 ft | 3 kts | 354° |
| 2026-04-22 12:53 | 30.56858 | 103.94974 | 1647 ft | 3 kts | 317° |
| 2026-04-22 12:54 | 30.56846 | 103.94991 | 1647 ft | 3 kts | 300° |
| 2026-04-22 12:54 | 30.56838 | 103.95009 | 1647 ft | 1 kts | 292° |
| 2026-04-22 12:54 | 30.56837 | 103.95011 | 1647 ft | 0 kts | 292° |
| 2026-04-22 12:56 | 30.56857 | 103.94957 | 1647 ft | 14 kts | 292° |
| 2026-04-22 12:56 | 30.56895 | 103.94847 | 1647 ft | 14 kts | 292° |
| 2026-04-22 12:57 | 30.56929 | 103.94751 | 1647 ft | 12 kts | 292° |
| 2026-04-22 12:57 | 30.56960 | 103.94665 | 1647 ft | 13 kts | 292° |
| 2026-04-22 12:57 | 30.56892 | 103.94581 | 1647 ft | 18 kts | 203° |
| 2026-04-22 12:57 | 30.56777 | 103.94526 | 1647 ft | 17 kts | 201° |
| 2026-04-22 12:58 | 30.56670 | 103.94474 | 1647 ft | 16 kts | 203° |
| 2026-04-22 12:58 | 30.56571 | 103.94427 | 1647 ft | 15 kts | 201° |
| 2026-04-22 12:58 | 30.56477 | 103.94384 | 1647 ft | 14 kts | 202° |
| 2026-04-22 12:58 | 30.56383 | 103.94339 | 1647 ft | 15 kts | 202° |
| 2026-04-22 12:59 | 30.56293 | 103.94294 | 1647 ft | 13 kts | 212° |
| 2026-04-22 12:59 | 30.56284 | 103.94204 | 1647 ft | 11 kts | 289° |
| 2026-04-22 12:59 | 30.56320 | 103.94094 | 1647 ft | 16 kts | 291° |
| 2026-04-22 12:59 | 30.56395 | 103.94030 | 1647 ft | 14 kts | 7° |
| 2026-04-22 13:00 | 30.56485 | 103.94069 | 1649 ft | 19 kts | 21° |
| 2026-04-22 13:00 | 30.56757 | 103.94195 | 1649 ft | 75 kts | 21° |
| 2026-04-22 13:00 | 30.57430 | 103.94505 | 1646 ft | 130 kts | 21° |
| 2026-04-22 13:00 | 30.58421 | 103.94961 | 1649 ft | 171 kts | 21° |
| 2026-04-22 13:01 | 30.59569 | 103.95485 | 2017 ft | 179 kts | 21° |
| 2026-04-22 13:01 | 30.60732 | 103.96023 | 2551 ft | 183 kts | 21° |
| 2026-04-22 13:01 | 30.61924 | 103.96584 | 3097 ft | 186 kts | 21° |
| 2026-04-22 13:01 | 30.63130 | 103.97155 | 3533 ft | 192 kts | 21° |
| 2026-04-22 13:02 | 30.64426 | 103.97760 | 3697 ft | 209 kts | 21° |
| 2026-04-22 13:02 | 30.65817 | 103.98414 | 3908 ft | 221 kts | 21° |
| 2026-04-22 13:02 | 30.67312 | 103.99117 | 4011 ft | 245 kts | 21° |
| 2026-04-22 13:02 | 30.68834 | 104.00184 | 4323 ft | 266 kts | 45° |
| 2026-04-22 13:03 | 30.69929 | 104.01953 | 5016 ft | 273 kts | 59° |
| 2026-04-22 13:03 | 30.70850 | 104.03893 | 5812 ft | 275 kts | 62° |
| 2026-04-22 13:03 | 30.71732 | 104.05869 | 6673 ft | 275 kts | 62° |
| 2026-04-22 13:03 | 30.72613 | 104.07828 | 7466 ft | 275 kts | 61° |
| 2026-04-22 13:04 | 30.73526 | 104.09796 | 8273 ft | 276 kts | 60° |
| 2026-04-22 13:04 | 30.74465 | 104.11752 | 9064 ft | 277 kts | 59° |
| 2026-04-22 13:04 | 30.75420 | 104.13706 | 9851 ft | 279 kts | 60° |
| 2026-04-22 13:04 | 30.76026 | 104.15852 | 10508 ft | 286 kts | 82° |
| 2026-04-22 13:05 | 30.75824 | 104.18180 | 11118 ft | 296 kts | 106° |
| 2026-04-22 13:05 | 30.74781 | 104.20273 | 11723 ft | 306 kts | 131° |
| 2026-04-22 13:05 | 30.73036 | 104.21706 | 12325 ft | 314 kts | 158° |
| 2026-04-22 13:05 | 30.71632 | 104.22122 | 12730 ft | 317 kts | 176° |
| 2026-04-22 13:06 | 30.68744 | 104.21528 | 13603 ft | 319 kts | 201° |
| 2026-04-22 13:06 | 30.66655 | 104.20658 | 14246 ft | 321 kts | 201° |
| 2026-04-22 13:06 | 30.65264 | 104.20074 | 14647 ft | 322 kts | 201° |
| 2026-04-22 13:06 | 30.62431 | 104.18888 | 15453 ft | 325 kts | 202° |
| 2026-04-22 13:07 | 30.60299 | 104.17999 | 16049 ft | 327 kts | 202° |
| 2026-04-22 13:07 | 30.58851 | 104.17442 | 16292 ft | 337 kts | 195° |
| 2026-04-22 13:07 | 30.56443 | 104.17286 | 16414 ft | 359 kts | 172° |
| 2026-04-22 13:07 | 30.54023 | 104.18235 | 16550 ft | 378 kts | 155° |
| 2026-04-22 13:08 | 30.51604 | 104.19596 | 16674 ft | 395 kts | 155° |
| 2026-04-22 13:08 | 30.49086 | 104.21034 | 16796 ft | 411 kts | 155° |
| 2026-04-22 13:08 | 30.46484 | 104.22528 | 16939 ft | 424 kts | 154° |
| 2026-04-22 13:08 | 30.43825 | 104.24054 | 17274 ft | 431 kts | 155° |
| 2026-04-22 13:09 | 30.41113 | 104.25603 | 17730 ft | 436 kts | 155° |
| 2026-04-22 13:09 | 30.38381 | 104.27154 | 18186 ft | 440 kts | 155° |
| 2026-04-22 13:09 | 30.35612 | 104.28718 | 18586 ft | 444 kts | 155° |
| 2026-04-22 13:09 | 30.32823 | 104.30287 | 18963 ft | 448 kts | 156° |
| 2026-04-22 13:10 | 30.30032 | 104.31857 | 19340 ft | 451 kts | 156° |
| 2026-04-22 13:10 | 30.27206 | 104.33447 | 19725 ft | 455 kts | 156° |
| 2026-04-22 13:10 | 30.24340 | 104.35059 | 20107 ft | 458 kts | 156° |
| 2026-04-22 13:10 | 30.21466 | 104.36677 | 20485 ft | 462 kts | 156° |
| 2026-04-22 13:11 | 30.18566 | 104.38310 | 20888 ft | 465 kts | 156° |
| 2026-04-22 13:11 | 30.15643 | 104.39955 | 21264 ft | 469 kts | 156° |
| 2026-04-22 13:11 | 30.12707 | 104.41605 | 21642 ft | 472 kts | 156° |
| 2026-04-22 13:11 | 30.09742 | 104.43270 | 22014 ft | 475 kts | 157° |
| 2026-04-22 13:12 | 30.06765 | 104.44940 | 22387 ft | 478 kts | 157° |
| 2026-04-22 13:12 | 30.03769 | 104.46617 | 22766 ft | 480 kts | 157° |
| 2026-04-22 13:12 | 30.00749 | 104.48304 | 23141 ft | 483 kts | 157° |
| 2026-04-22 13:12 | 29.97714 | 104.50001 | 23512 ft | 486 kts | 157° |
| 2026-04-22 13:13 | 29.94663 | 104.51708 | 23842 ft | 488 kts | 157° |
| 2026-04-22 13:13 | 29.91607 | 104.53422 | 24185 ft | 489 kts | 157° |
| 2026-04-22 13:13 | 29.88541 | 104.55140 | 24531 ft | 490 kts | 158° |
| 2026-04-22 13:13 | 29.85472 | 104.56856 | 24884 ft | 491 kts | 158° |
| 2026-04-22 13:14 | 29.82400 | 104.58567 | 25235 ft | 492 kts | 158° |
| 2026-04-22 13:14 | 29.79311 | 104.60285 | 25593 ft | 492 kts | 158° |
| 2026-04-22 13:14 | 29.76226 | 104.62004 | 25946 ft | 493 kts | 158° |
| 2026-04-22 13:14 | 29.73144 | 104.63723 | 26298 ft | 494 kts | 158° |
| 2026-04-22 13:15 | 29.70047 | 104.65449 | 26627 ft | 495 kts | 158° |
| 2026-04-22 13:15 | 29.66941 | 104.67175 | 26941 ft | 495 kts | 158° |
| 2026-04-22 13:15 | 29.63842 | 104.68892 | 27368 ft | 493 kts | 158° |
| 2026-04-22 13:15 | 29.60764 | 104.70597 | 27792 ft | 491 kts | 158° |
| 2026-04-22 13:16 | 29.57690 | 104.72304 | 28225 ft | 489 kts | 158° |
| 2026-04-22 13:16 | 29.54640 | 104.74000 | 28658 ft | 486 kts | 158° |
| 2026-04-22 13:16 | 29.51603 | 104.75690 | 29067 ft | 485 kts | 158° |
| 2026-04-22 13:16 | 29.48571 | 104.77375 | 29482 ft | 483 kts | 159° |
| 2026-04-22 13:17 | 29.45555 | 104.79049 | 29879 ft | 481 kts | 159° |
| 2026-04-22 13:17 | 29.42541 | 104.80719 | 30246 ft | 480 kts | 159° |
| 2026-04-22 13:17 | 29.39537 | 104.82380 | 30569 ft | 479 kts | 159° |
| 2026-04-22 13:17 | 29.36541 | 104.84032 | 30894 ft | 477 kts | 160° |
| 2026-04-22 13:18 | 29.33549 | 104.85677 | 31225 ft | 476 kts | 160° |
| 2026-04-22 13:18 | 29.30554 | 104.87280 | 31555 ft | 474 kts | 161° |
| 2026-04-22 13:18 | 29.27545 | 104.88820 | 31893 ft | 472 kts | 162° |
| 2026-04-22 13:18 | 29.24538 | 104.90316 | 32220 ft | 471 kts | 163° |
| 2026-04-22 13:19 | 29.21530 | 104.91793 | 32552 ft | 470 kts | 163° |
| 2026-04-22 13:19 | 29.18533 | 104.93268 | 32884 ft | 469 kts | 163° |
| 2026-04-22 13:19 | 29.15540 | 104.94753 | 33211 ft | 468 kts | 163° |
| 2026-04-22 13:19 | 29.12558 | 104.96250 | 33531 ft | 468 kts | 163° |
| 2026-04-22 13:20 | 29.09579 | 104.97753 | 33834 ft | 468 kts | 163° |
| 2026-04-22 13:20 | 29.06608 | 104.99258 | 34111 ft | 467 kts | 163° |
| 2026-04-22 13:20 | 29.03638 | 105.00761 | 34337 ft | 468 kts | 163° |
| 2026-04-22 13:20 | 29.00651 | 105.02273 | 34530 ft | 470 kts | 163° |
| 2026-04-22 13:21 | 28.97656 | 105.03789 | 34718 ft | 471 kts | 164° |
| 2026-04-22 13:21 | 28.94655 | 105.05308 | 34895 ft | 473 kts | 164° |
| 2026-04-22 13:21 | 28.91641 | 105.06826 | 35062 ft | 474 kts | 165° |
| 2026-04-22 13:22 | 28.85590 | 105.09847 | 35113 ft | 475 kts | 165° |
| 2026-04-22 13:22 | 28.79520 | 105.12868 | 35115 ft | 476 kts | 165° |
| 2026-04-22 13:23 | 28.73506 | 105.16088 | 35117 ft | 480 kts | 161° |
| 2026-04-22 13:23 | 28.67605 | 105.19740 | 35118 ft | 484 kts | 159° |
| 2026-04-22 13:24 | 28.61733 | 105.23473 | 35116 ft | 483 kts | 160° |
| 2026-04-22 13:24 | 28.55824 | 105.27103 | 35122 ft | 482 kts | 161° |
| 2026-04-22 13:25 | 28.49886 | 105.30648 | 35119 ft | 482 kts | 162° |
| 2026-04-22 13:25 | 28.43951 | 105.34192 | 35121 ft | 482 kts | 162° |
| 2026-04-22 13:26 | 28.38021 | 105.37755 | 35112 ft | 483 kts | 162° |
| 2026-04-22 13:26 | 28.32078 | 105.41334 | 35114 ft | 483 kts | 162° |
| 2026-04-22 13:27 | 28.26139 | 105.44904 | 35124 ft | 484 kts | 162° |
| 2026-04-22 13:27 | 28.20177 | 105.48482 | 35127 ft | 485 kts | 163° |
| 2026-04-22 13:28 | 28.14205 | 105.52056 | 35131 ft | 485 kts | 163° |
| 2026-04-22 13:28 | 28.08223 | 105.55615 | 35125 ft | 483 kts | 166° |
| 2026-04-22 13:28 | 28.05148 | 105.57028 | 35128 ft | 470 kts | 174° |
| 2026-04-22 13:29 | 28.02025 | 105.57913 | 35126 ft | 456 kts | 182° |
| 2026-04-22 13:29 | 27.95782 | 105.58890 | 35130 ft | 454 kts | 184° |
| 2026-04-22 13:30 | 27.89527 | 105.59871 | 35129 ft | 454 kts | 184° |
| 2026-04-22 13:30 | 27.83267 | 105.60878 | 35136 ft | 456 kts | 182° |
| 2026-04-22 13:30 | 27.80124 | 105.61694 | 35134 ft | 470 kts | 173° |
| 2026-04-22 13:31 | 27.77044 | 105.63107 | 35134 ft | 487 kts | 163° |
| 2026-04-22 13:31 | 27.71050 | 105.66773 | 35127 ft | 491 kts | 163° |
| 2026-04-22 13:32 | 27.65020 | 105.70383 | 35125 ft | 489 kts | 165° |
| 2026-04-22 13:32 | 27.58908 | 105.73690 | 35128 ft | 486 kts | 167° |
| 2026-04-22 13:33 | 27.52760 | 105.76897 | 35122 ft | 488 kts | 167° |
| 2026-04-22 13:33 | 27.46611 | 105.80157 | 35141 ft | 490 kts | 166° |
| 2026-04-22 13:34 | 27.40485 | 105.83470 | 35142 ft | 491 kts | 166° |
| 2026-04-22 13:34 | 27.34302 | 105.86829 | 35143 ft | 491 kts | 166° |
| 2026-04-22 13:35 | 27.28128 | 105.90160 | 35142 ft | 491 kts | 166° |
| 2026-04-22 13:35 | 27.21970 | 105.93461 | 35142 ft | 491 kts | 166° |
| 2026-04-22 13:36 | 27.15800 | 105.96766 | 35144 ft | 491 kts | 167° |
| 2026-04-22 13:36 | 27.09633 | 106.00070 | 35142 ft | 491 kts | 166° |
| 2026-04-22 13:36 | 27.06606 | 106.01934 | 35137 ft | 504 kts | 158° |
| 2026-04-22 13:37 | 27.03788 | 106.04346 | 35134 ft | 518 kts | 147° |
| 2026-04-22 13:37 | 27.01270 | 106.07307 | 35131 ft | 531 kts | 136° |
| 2026-04-22 13:37 | 26.99035 | 106.10630 | 35132 ft | 534 kts | 135° |
| 2026-04-22 13:38 | 26.94572 | 106.17287 | 35130 ft | 534 kts | 135° |
| 2026-04-22 13:38 | 26.87842 | 106.27237 | 35138 ft | 534 kts | 135° |
| 2026-04-22 13:39 | 26.83360 | 106.33861 | 35144 ft | 534 kts | 135° |
| 2026-04-22 13:39 | 26.78878 | 106.40483 | 35149 ft | 533 kts | 135° |
| 2026-04-22 13:40 | 26.74398 | 106.47096 | 35154 ft | 533 kts | 135° |
| 2026-04-22 13:40 | 26.69924 | 106.53686 | 35165 ft | 532 kts | 135° |
| 2026-04-22 13:41 | 26.65442 | 106.60278 | 35166 ft | 532 kts | 135° |
| 2026-04-22 13:41 | 26.60961 | 106.66861 | 35179 ft | 532 kts | 135° |
| 2026-04-22 13:42 | 26.56480 | 106.73425 | 35184 ft | 531 kts | 135° |
| 2026-04-22 13:42 | 26.51919 | 106.79896 | 35178 ft | 524 kts | 141° |
| 2026-04-22 13:43 | 26.46786 | 106.85585 | 35179 ft | 520 kts | 144° |
| 2026-04-22 13:43 | 26.41635 | 106.91246 | 35164 ft | 520 kts | 144° |
| 2026-04-22 13:44 | 26.36490 | 106.96908 | 35151 ft | 519 kts | 144° |
| 2026-04-22 13:44 | 26.31337 | 107.02561 | 35131 ft | 519 kts | 144° |
| 2026-04-22 13:45 | 26.26186 | 107.08202 | 35119 ft | 519 kts | 144° |
| 2026-04-22 13:45 | 26.21041 | 107.13854 | 35109 ft | 519 kts | 144° |
| 2026-04-22 13:46 | 26.15912 | 107.19503 | 35105 ft | 519 kts | 144° |
| 2026-04-22 13:46 | 26.11635 | 107.24190 | 35101 ft | 519 kts | 144° |
| 2026-04-22 13:47 | 26.06498 | 107.29801 | 35101 ft | 520 kts | 144° |
| 2026-04-22 13:47 | 26.01328 | 107.35441 | 35095 ft | 520 kts | 144° |
| 2026-04-22 13:48 | 25.96158 | 107.41090 | 35084 ft | 520 kts | 144° |
| 2026-04-22 13:48 | 25.90999 | 107.46720 | 35090 ft | 520 kts | 144° |
| 2026-04-22 13:49 | 25.85832 | 107.52342 | 35090 ft | 520 kts | 144° |
| 2026-04-22 13:49 | 25.80672 | 107.57960 | 35090 ft | 519 kts | 144° |
| 2026-04-22 13:50 | 25.75511 | 107.63562 | 35082 ft | 519 kts | 144° |
| 2026-04-22 13:50 | 25.70351 | 107.69158 | 35082 ft | 519 kts | 144° |
| 2026-04-22 13:51 | 25.65203 | 107.74778 | 35080 ft | 519 kts | 143° |
| 2026-04-22 13:51 | 25.60073 | 107.80412 | 35083 ft | 519 kts | 143° |
| 2026-04-22 13:52 | 25.54941 | 107.86032 | 35085 ft | 519 kts | 143° |
| 2026-04-22 13:52 | 25.49703 | 107.91560 | 35077 ft | 510 kts | 150° |
| 2026-04-22 13:53 | 25.46832 | 107.93781 | 35071 ft | 498 kts | 160° |
| 2026-04-22 13:53 | 25.43780 | 107.95480 | 35068 ft | 485 kts | 168° |
| 2026-04-22 13:53 | 25.40629 | 107.96655 | 35065 ft | 472 kts | 176° |
| 2026-04-22 13:53 | 25.37447 | 107.97329 | 35062 ft | 460 kts | 184° |
| 2026-04-22 13:54 | 25.31101 | 107.98085 | 35057 ft | 459 kts | 184° |
| 2026-04-22 13:54 | 25.24758 | 107.98856 | 35049 ft | 459 kts | 184° |
| 2026-04-22 13:55 | 25.18406 | 107.99637 | 35045 ft | 459 kts | 184° |
| 2026-04-22 13:55 | 25.12054 | 108.00415 | 35037 ft | 459 kts | 184° |
| 2026-04-22 13:56 | 25.05709 | 108.01187 | 35031 ft | 459 kts | 184° |
| 2026-04-22 13:56 | 24.99361 | 108.01957 | 35027 ft | 459 kts | 184° |
| 2026-04-22 13:57 | 24.93001 | 108.02727 | 35021 ft | 459 kts | 183° |
| 2026-04-22 13:57 | 24.86645 | 108.03502 | 35018 ft | 460 kts | 183° |
| 2026-04-22 13:58 | 24.80280 | 108.04272 | 35020 ft | 461 kts | 183° |
| 2026-04-22 13:58 | 24.73902 | 108.05042 | 35017 ft | 461 kts | 183° |
| 2026-04-22 13:59 | 24.67521 | 108.05808 | 35019 ft | 462 kts | 183° |
| 2026-04-22 13:59 | 24.61134 | 108.06586 | 35015 ft | 462 kts | 183° |
| 2026-04-22 14:00 | 24.54740 | 108.07429 | 35016 ft | 469 kts | 176° |
| 2026-04-22 14:00 | 24.51603 | 108.08610 | 35015 ft | 488 kts | 160° |
| 2026-04-22 14:00 | 24.48819 | 108.10736 | 35013 ft | 505 kts | 142° |
| 2026-04-22 14:01 | 24.44325 | 108.16895 | 35008 ft | 515 kts | 132° |
| 2026-04-22 14:01 | 24.40021 | 108.23197 | 35010 ft | 517 kts | 132° |
| 2026-04-22 14:02 | 24.35701 | 108.29495 | 35029 ft | 516 kts | 132° |
| 2026-04-22 14:02 | 24.31361 | 108.35769 | 35041 ft | 516 kts | 132° |
| 2026-04-22 14:03 | 24.27019 | 108.42027 | 35042 ft | 515 kts | 131° |
| 2026-04-22 14:03 | 24.22692 | 108.48272 | 35051 ft | 514 kts | 131° |
| 2026-04-22 14:04 | 24.18363 | 108.54508 | 35036 ft | 514 kts | 131° |
| 2026-04-22 14:04 | 24.14042 | 108.60734 | 35034 ft | 513 kts | 132° |
| 2026-04-22 14:05 | 24.09720 | 108.66952 | 35029 ft | 513 kts | 132° |
| 2026-04-22 14:06 | 24.03250 | 108.76218 | 35024 ft | 513 kts | 132° |
| 2026-04-22 14:06 | 23.98888 | 108.82463 | 35023 ft | 513 kts | 132° |
| 2026-04-22 14:07 | 23.94564 | 108.88652 | 35021 ft | 513 kts | 131° |
| 2026-04-22 14:07 | 23.90239 | 108.94845 | 35015 ft | 513 kts | 131° |
| 2026-04-22 14:08 | 23.85908 | 109.01040 | 35015 ft | 512 kts | 131° |
| 2026-04-22 14:08 | 23.81578 | 109.07206 | 35013 ft | 512 kts | 132° |
| 2026-04-22 14:09 | 23.77501 | 109.13589 | 35006 ft | 517 kts | 121° |
| 2026-04-22 14:09 | 23.75050 | 109.20995 | 35003 ft | 523 kts | 103° |
| 2026-04-22 14:10 | 23.73527 | 109.28759 | 34998 ft | 523 kts | 103° |
| 2026-04-22 14:10 | 23.71961 | 109.36508 | 35001 ft | 523 kts | 104° |
| 2026-04-22 14:11 | 23.70384 | 109.44253 | 35002 ft | 523 kts | 104° |
| 2026-04-22 14:11 | 23.68813 | 109.52000 | 35007 ft | 523 kts | 104° |
| 2026-04-22 14:12 | 23.67239 | 109.59738 | 35001 ft | 522 kts | 104° |
| 2026-04-22 14:12 | 23.65656 | 109.67468 | 35004 ft | 522 kts | 104° |
| 2026-04-22 14:13 | 23.64064 | 109.75176 | 35011 ft | 521 kts | 104° |
| 2026-04-22 14:13 | 23.62477 | 109.82841 | 35010 ft | 520 kts | 104° |
| 2026-04-22 14:14 | 23.60879 | 109.90522 | 35015 ft | 519 kts | 104° |
| 2026-04-22 14:14 | 23.59286 | 109.98181 | 35011 ft | 518 kts | 104° |
| 2026-04-22 14:15 | 23.57688 | 110.05837 | 35003 ft | 517 kts | 104° |
| 2026-04-22 14:15 | 23.56088 | 110.13464 | 35002 ft | 516 kts | 104° |
| 2026-04-22 14:16 | 23.54490 | 110.21079 | 35001 ft | 515 kts | 104° |
| 2026-04-22 14:16 | 23.52903 | 110.28694 | 34998 ft | 515 kts | 104° |
| 2026-04-22 14:17 | 23.51308 | 110.36295 | 34997 ft | 515 kts | 104° |
| 2026-04-22 14:17 | 23.49735 | 110.43902 | 34996 ft | 514 kts | 104° |
| 2026-04-22 14:18 | 23.48205 | 110.51511 | 34999 ft | 514 kts | 104° |
| 2026-04-22 14:18 | 23.46673 | 110.59118 | 35001 ft | 514 kts | 104° |
| 2026-04-22 14:19 | 23.45118 | 110.66713 | 34997 ft | 513 kts | 104° |
| 2026-04-22 14:19 | 23.43551 | 110.74293 | 34999 ft | 513 kts | 104° |
| 2026-04-22 14:20 | 23.41151 | 110.85643 | 35000 ft | 513 kts | 104° |
| 2026-04-22 14:20 | 23.39537 | 110.93196 | 35002 ft | 512 kts | 104° |
| 2026-04-22 14:21 | 23.37136 | 111.04519 | 34998 ft | 511 kts | 104° |
| 2026-04-22 14:22 | 23.34745 | 111.15819 | 35001 ft | 511 kts | 104° |
| 2026-04-22 14:23 | 23.32435 | 111.27124 | 35000 ft | 510 kts | 103° |
| 2026-04-22 14:23 | 23.30913 | 111.34660 | 34993 ft | 509 kts | 103° |
| 2026-04-22 14:24 | 23.29372 | 111.42176 | 34998 ft | 509 kts | 103° |
| 2026-04-22 14:24 | 23.27825 | 111.49674 | 34998 ft | 508 kts | 104° |
| 2026-04-22 14:25 | 23.26264 | 111.57172 | 34995 ft | 508 kts | 104° |
| 2026-04-22 14:25 | 23.24675 | 111.64650 | 34995 ft | 507 kts | 104° |
| 2026-04-22 14:26 | 23.23350 | 111.70850 | 34996 ft | 507 kts | 104° |
| 2026-04-22 14:26 | 23.21759 | 111.78314 | 34992 ft | 506 kts | 104° |
| 2026-04-22 14:27 | 23.20178 | 111.85776 | 34991 ft | 506 kts | 103° |
| 2026-04-22 14:27 | 23.18637 | 111.93230 | 34988 ft | 506 kts | 103° |
| 2026-04-22 14:28 | 23.17098 | 112.00688 | 34984 ft | 505 kts | 103° |
| 2026-04-22 14:28 | 23.15547 | 112.08132 | 34983 ft | 505 kts | 103° |
| 2026-04-22 14:29 | 23.13984 | 112.15575 | 34976 ft | 505 kts | 103° |
| 2026-04-22 14:29 | 23.12424 | 112.23012 | 34978 ft | 504 kts | 103° |
| 2026-04-22 14:30 | 23.10865 | 112.30435 | 34975 ft | 504 kts | 103° |
| 2026-04-22 14:30 | 23.09300 | 112.37842 | 34779 ft | 502 kts | 103° |
| 2026-04-22 14:30 | 23.08515 | 112.41546 | 34139 ft | 503 kts | 103° |
| 2026-04-22 14:31 | 23.07726 | 112.45259 | 33410 ft | 505 kts | 103° |
| 2026-04-22 14:31 | 23.07037 | 112.48997 | 32641 ft | 507 kts | 97° |
| 2026-04-22 14:31 | 23.06728 | 112.52816 | 31873 ft | 509 kts | 94° |
| 2026-04-22 14:31 | 23.06477 | 112.56661 | 31107 ft | 511 kts | 94° |
| 2026-04-22 14:32 | 23.06223 | 112.60512 | 30352 ft | 513 kts | 94° |
| 2026-04-22 14:32 | 23.05962 | 112.64390 | 29528 ft | 515 kts | 94° |
| 2026-04-22 14:32 | 23.05699 | 112.68276 | 28638 ft | 517 kts | 94° |
| 2026-04-22 14:32 | 23.05433 | 112.72165 | 27761 ft | 518 kts | 94° |
| 2026-04-22 14:33 | 23.05166 | 112.76073 | 26890 ft | 519 kts | 94° |
| 2026-04-22 14:33 | 23.04900 | 112.79976 | 26017 ft | 520 kts | 94° |
| 2026-04-22 14:33 | 23.04630 | 112.83911 | 25136 ft | 521 kts | 94° |
| 2026-04-22 14:33 | 23.04359 | 112.87837 | 24260 ft | 522 kts | 95° |
| 2026-04-22 14:34 | 23.04086 | 112.91768 | 23479 ft | 521 kts | 95° |
| 2026-04-22 14:34 | 23.03817 | 112.95669 | 22781 ft | 514 kts | 95° |
| 2026-04-22 14:34 | 23.03551 | 112.99511 | 22079 ft | 508 kts | 95° |
| 2026-04-22 14:34 | 23.03287 | 113.03306 | 21373 ft | 502 kts | 95° |
| 2026-04-22 14:35 | 23.03026 | 113.07060 | 20691 ft | 496 kts | 95° |
| 2026-04-22 14:35 | 23.02764 | 113.10768 | 20025 ft | 490 kts | 95° |
| 2026-04-22 14:35 | 23.02497 | 113.14431 | 19368 ft | 484 kts | 96° |
| 2026-04-22 14:35 | 23.01931 | 113.18002 | 18733 ft | 478 kts | 105° |
| 2026-04-22 14:36 | 23.00914 | 113.21403 | 18107 ft | 471 kts | 113° |
| 2026-04-22 14:36 | 22.99510 | 113.24585 | 17398 ft | 465 kts | 119° |
| 2026-04-22 14:36 | 22.98011 | 113.27680 | 16686 ft | 460 kts | 119° |
| 2026-04-22 14:36 | 22.96526 | 113.30737 | 16006 ft | 455 kts | 119° |
| 2026-04-22 14:37 | 22.95064 | 113.33765 | 15338 ft | 451 kts | 119° |
| 2026-04-22 14:37 | 22.93617 | 113.36763 | 14682 ft | 447 kts | 120° |
| 2026-04-22 14:37 | 22.91967 | 113.39583 | 14044 ft | 439 kts | 130° |
| 2026-04-22 14:37 | 22.89872 | 113.41943 | 13386 ft | 431 kts | 143° |
| 2026-04-22 14:38 | 22.87414 | 113.43722 | 12708 ft | 421 kts | 156° |
| 2026-04-22 14:38 | 22.84733 | 113.44875 | 12050 ft | 411 kts | 168° |
| 2026-04-22 14:38 | 22.81952 | 113.45428 | 11412 ft | 401 kts | 179° |
| 2026-04-22 14:38 | 22.79199 | 113.45399 | 10788 ft | 392 kts | 190° |
| 2026-04-22 14:39 | 22.76580 | 113.44754 | 10180 ft | 383 kts | 202° |
| 2026-04-22 14:39 | 22.74210 | 113.43514 | 9695 ft | 372 kts | 215° |
| 2026-04-22 14:39 | 22.72248 | 113.41820 | 9563 ft | 352 kts | 226° |
| 2026-04-22 14:40 | 22.69643 | 113.37686 | 9302 ft | 315 kts | 247° |
| 2026-04-22 14:40 | 22.68819 | 113.35583 | 9169 ft | 292 kts | 247° |
| 2026-04-22 14:40 | 22.68043 | 113.33624 | 8932 ft | 277 kts | 247° |
| 2026-04-22 14:40 | 22.67292 | 113.31728 | 8616 ft | 272 kts | 247° |
| 2026-04-22 14:41 | 22.66550 | 113.29876 | 8415 ft | 263 kts | 244° |
| 2026-04-22 14:41 | 22.65443 | 113.28365 | 8276 ft | 254 kts | 218° |
| 2026-04-22 14:41 | 22.63824 | 113.27644 | 8005 ft | 256 kts | 189° |
| 2026-04-22 14:41 | 22.62057 | 113.27880 | 7656 ft | 262 kts | 160° |
| 2026-04-22 14:42 | 22.60575 | 113.29044 | 7281 ft | 269 kts | 130° |
| 2026-04-22 14:42 | 22.59765 | 113.30865 | 6919 ft | 273 kts | 101° |
| 2026-04-22 14:42 | 22.59825 | 113.32904 | 6571 ft | 273 kts | 76° |
| 2026-04-22 14:42 | 22.60360 | 113.34869 | 6217 ft | 272 kts | 68° |
| 2026-04-22 14:43 | 22.61049 | 113.36771 | 5943 ft | 268 kts | 67° |
| 2026-04-22 14:43 | 22.61736 | 113.38587 | 5851 ft | 253 kts | 66° |
| 2026-04-22 14:43 | 22.62391 | 113.40310 | 5650 ft | 244 kts | 66° |
| 2026-04-22 14:43 | 22.63034 | 113.41994 | 5351 ft | 240 kts | 66° |
| 2026-04-22 14:44 | 22.63669 | 113.43655 | 5013 ft | 238 kts | 66° |
| 2026-04-22 14:44 | 22.64304 | 113.45304 | 4681 ft | 236 kts | 66° |
| 2026-04-22 14:44 | 22.64936 | 113.46938 | 4346 ft | 235 kts | 66° |
| 2026-04-22 14:44 | 22.65568 | 113.48567 | 4000 ft | 234 kts | 66° |
| 2026-04-22 14:45 | 22.66203 | 113.50180 | 3891 ft | 233 kts | 66° |
| 2026-04-22 14:45 | 22.67022 | 113.51690 | 3901 ft | 234 kts | 45° |
| 2026-04-22 14:45 | 22.68354 | 113.52647 | 3899 ft | 230 kts | 17° |
| 2026-04-22 14:45 | 22.69883 | 113.53136 | 3903 ft | 229 kts | 13° |
| 2026-04-22 14:46 | 22.71417 | 113.53615 | 3900 ft | 229 kts | 13° |
| 2026-04-22 14:46 | 22.72950 | 113.54096 | 3899 ft | 230 kts | 13° |
| 2026-04-22 14:46 | 22.74488 | 113.54579 | 3900 ft | 230 kts | 13° |
| 2026-04-22 14:46 | 22.76024 | 113.55062 | 3898 ft | 230 kts | 13° |
| 2026-04-22 14:47 | 22.77559 | 113.55545 | 3902 ft | 230 kts | 13° |
| 2026-04-22 14:47 | 22.79094 | 113.56030 | 3901 ft | 230 kts | 13° |
| 2026-04-22 14:47 | 22.80622 | 113.56519 | 3873 ft | 228 kts | 16° |
| 2026-04-22 14:47 | 22.82062 | 113.57251 | 3538 ft | 230 kts | 30° |
| 2026-04-22 14:48 | 22.83308 | 113.58346 | 3295 ft | 231 kts | 45° |
| 2026-04-22 14:48 | 22.84290 | 113.59729 | 3294 ft | 234 kts | 58° |
| 2026-04-22 14:48 | 22.85053 | 113.61298 | 3298 ft | 235 kts | 62° |
| 2026-04-22 14:48 | 22.85806 | 113.62875 | 3299 ft | 236 kts | 62° |
| 2026-04-22 14:49 | 22.86563 | 113.64450 | 3300 ft | 235 kts | 62° |
| 2026-04-22 14:49 | 22.87168 | 113.66063 | 3279 ft | 225 kts | 83° |
| 2026-04-22 14:49 | 22.86988 | 113.67640 | 3310 ft | 205 kts | 116° |
| 2026-04-22 14:49 | 22.86142 | 113.68821 | 3305 ft | 196 kts | 148° |
| 2026-04-22 14:50 | 22.84963 | 113.69518 | 3307 ft | 193 kts | 158° |
| 2026-04-22 14:50 | 22.83765 | 113.70174 | 3304 ft | 193 kts | 158° |
| 2026-04-22 14:50 | 22.82566 | 113.70833 | 3306 ft | 193 kts | 158° |
| 2026-04-22 14:50 | 22.81365 | 113.71493 | 3290 ft | 194 kts | 158° |
| 2026-04-22 14:51 | 22.80164 | 113.72153 | 3119 ft | 193 kts | 158° |
| 2026-04-22 14:51 | 22.78973 | 113.72808 | 2899 ft | 191 kts | 158° |
| 2026-04-22 14:51 | 22.77789 | 113.73459 | 2661 ft | 190 kts | 158° |
| 2026-04-22 14:51 | 22.76616 | 113.74103 | 2416 ft | 186 kts | 158° |
| 2026-04-22 14:52 | 22.75500 | 113.74717 | 2179 ft | 174 kts | 158° |
| 2026-04-22 14:52 | 22.74443 | 113.75298 | 1983 ft | 167 kts | 158° |
| 2026-04-22 14:52 | 22.73417 | 113.75860 | 1756 ft | 164 kts | 158° |
| 2026-04-22 14:52 | 22.72416 | 113.76410 | 1554 ft | 154 kts | 157° |
| 2026-04-22 14:53 | 22.71494 | 113.76916 | 1348 ft | 144 kts | 158° |
| 2026-04-22 14:53 | 22.70616 | 113.77398 | 1163 ft | 141 kts | 158° |
| 2026-04-22 14:53 | 22.69732 | 113.77882 | 985 ft | 140 kts | 156° |
| 2026-04-22 14:53 | 22.68876 | 113.78351 | 814 ft | 140 kts | 155° |
| 2026-04-22 14:54 | 22.68012 | 113.78825 | 653 ft | 138 kts | 155° |
| 2026-04-22 14:54 | 22.67156 | 113.79295 | 430 ft | 138 kts | 154° |
| 2026-04-22 14:54 | 22.66301 | 113.79763 | 263 ft | 137 kts | 154° |
| 2026-04-22 14:54 | 22.65441 | 113.80234 | 59 ft | 136 kts | 154° |
| 2026-04-22 14:55 | 22.64629 | 113.80680 | 16 ft | 117 kts | 154° |
| 2026-04-22 14:55 | 22.64097 | 113.80969 | 15 ft | 60 kts | 153° |
| 2026-04-22 14:55 | 22.63788 | 113.81136 | 15 ft | 45 kts | 153° |
| 2026-04-22 14:55 | 22.63580 | 113.81238 | 15 ft | 26 kts | 165° |
| 2026-04-22 14:56 | 22.63412 | 113.81249 | 15 ft | 20 kts | 184° |
| 2026-04-22 14:56 | 22.63322 | 113.81222 | 15 ft | 11 kts | 232° |
| 2026-04-22 14:56 | 22.63285 | 113.81150 | 15 ft | 10 kts | 243° |
| 2026-04-22 14:56 | 22.63283 | 113.81079 | 15 ft | 9 kts | 279° |
| 2026-04-22 14:57 | 22.63266 | 113.81016 | 15 ft | 9 kts | 244° |
| 2026-04-22 14:57 | 22.63234 | 113.80951 | 15 ft | 15 kts | 242° |
| 2026-04-22 14:57 | 22.63189 | 113.80852 | 15 ft | 10 kts | 251° |
| 2026-04-22 14:57 | 22.63210 | 113.80804 | 15 ft | 7 kts | 320° |
| 2026-04-22 14:58 | 22.63249 | 113.80771 | 15 ft | 10 kts | 324° |
| 2026-04-22 14:58 | 22.63285 | 113.80750 | 15 ft | 2 kts | 333° |
| 2026-04-22 14:58 | 22.63297 | 113.80743 | 15 ft | 1 kts | 333° |
| 2026-04-22 14:58 | 22.63301 | 113.80741 | 15 ft | 0 kts | 333° |